Bethel, Texas
Current Conditions -  °F | °C
As of 12:15 AM on Saturday 20 Dec 2014 (Local Time) from KCOM Reporting Station
Overcast Overcast  
Wind Chill: 46°   Ceiling: 1800
Heat Index: 46°   Visibility: 10mi
Dew Point: 44°   Wind: 3mph
Humidity: 92%   Direction: 60°ENE
Pressure: 30.2"   Gusts: NA
Location:  31.7639°N, 99.8991°W
Report Text: KCOM 200615Z AUTO 06003KT 10SM OVC018 08/06 A3020 RMK AO2 T00770064
Loading
Personal Weather Stations






























Interactive Weather Map New forecast layout! Learn more

10-Day Weather Forecast

Advertisements
Track Severe Weather on mobile